Time;durP1;ratioP1;P1;durP2;ratioP2;P2;SDS_P1;SDS_P2;PMS_P1;PMS_P2;Temp;Humidity;BMP_temperature;BMP_pressure;BME280_temperature;BME280_humidity;BME280_pressure;Samples;Min_cycle;Max_cycle;Signal;HPM_P1;HPM_P2
2024/02/29 16:50:15;;;;;;;2.10;1.07;;;9.70;99.90;;;;;;4722837;27;20238;-77
2024/02/29 16:52:42;;;;;;;1.60;0.90;;;9.70;99.90;;;;;;4899504;29;20268;-76
2024/02/29 16:55:09;;;;;;;2.20;1.40;;;9.60;99.90;;;;;;4899390;29;20226;-77
2024/02/29 16:57:36;;;;;;;1.37;1.00;;;9.60;99.90;;;;;;4899421;29;20214;-76
2024/02/29 17:00:03;;;;;;;1.70;1.30;;;9.70;99.90;;;;;;4898982;29;20237;-75
2024/02/29 17:02:30;;;;;;;2.30;1.10;;;9.60;99.90;;;;;;4899252;29;20301;-75
2024/02/29 17:04:58;;;;;;;2.40;1.10;;;9.60;99.90;;;;;;4899117;29;20226;-75
2024/02/29 17:07:26;;;;;;;1.47;0.87;;;9.60;99.90;;;;;;4899120;29;20258;-75
2024/02/29 17:09:55;;;;;;;1.70;0.97;;;9.60;99.90;;;;;;4898976;29;20301;-75
2024/02/29 17:12:21;;;;;;;2.17;1.20;;;9.60;99.90;;;;;;4899089;29;20221;-76
2024/02/29 17:14:49;;;;;;;2.30;1.10;;;9.60;99.90;;;;;;4894326;29;20206;-78
2024/02/29 17:17:15;;;;;;;2.20;1.30;;;9.50;99.90;;;;;;4897097;29;20563;-78
2024/02/29 17:19:42;;;;;;;1.93;1.13;;;9.60;99.90;;;;;;4897349;29;20215;-78
2024/02/29 17:22:09;;;;;;;2.13;1.30;;;9.60;99.90;;;;;;4897783;29;20301;-76
2024/02/29 17:24:38;;;;;;;2.17;1.50;;;9.60;99.90;;;;;;4896843;29;20214;-78
2024/02/29 17:27:04;;;;;;;1.33;0.97;;;9.60;99.90;;;;;;4897489;29;20301;-75
2024/02/29 17:29:31;;;;;;;1.93;1.20;;;9.60;99.90;;;;;;4896867;29;20215;-77
2024/02/29 17:31:58;;;;;;;1.47;1.10;;;9.60;99.90;;;;;;4897452;29;20638;-73
2024/02/29 17:34:26;;;;;;;1.70;1.33;;;9.60;99.90;;;;;;4896814;29;20697;-73
2024/02/29 17:36:53;;;;;;;1.47;1.13;;;9.60;99.90;;;;;;4896927;29;20309;-76
2024/02/29 17:39:20;;;;;;;2.13;1.57;;;9.70;99.90;;;;;;4896727;29;20247;-78
2024/02/29 17:41:48;;;;;;;2.87;1.50;;;9.70;99.90;;;;;;4896480;29;20668;-77
2024/02/29 17:44:18;;;;;;;1.57;0.97;;;9.60;99.90;;;;;;4896500;29;20337;-76
2024/02/29 17:46:45;;;;;;;2.87;1.43;;;9.70;99.90;;;;;;4896684;29;20278;-78
2024/02/29 17:49:13;;;;;;;2.10;1.30;;;9.70;99.90;;;;;;4896587;29;20210;-78
2024/02/29 17:51:44;;;;;;;2.40;1.60;;;9.70;99.90;;;;;;4896707;29;20223;-78
2024/02/29 17:54:11;;;;;;;2.77;1.87;;;9.70;99.90;;;;;;4894795;29;20682;-79
2024/02/29 17:56:38;;;;;;;4.00;1.50;;;9.70;99.90;;;;;;4895066;29;20226;-78
2024/02/29 17:59:06;;;;;;;2.83;1.60;;;9.70;99.90;;;;;;4895732;29;20214;-77
2024/02/29 18:01:33;;;;;;;3.63;1.57;;;9.80;99.90;;;;;;4896493;29;20238;-77
2024/02/29 18:04:00;;;;;;;2.13;1.50;;;9.70;99.90;;;;;;4896193;29;20232;-76
2024/02/29 18:06:27;;;;;;;3.70;1.63;;;9.80;99.90;;;;;;4896208;29;20576;-75
2024/02/29 18:08:54;;;;;;;5.13;1.80;;;9.80;99.90;;;;;;4896283;29;20224;-77
2024/02/29 18:11:21;;;;;;;2.63;1.40;;;9.80;99.90;;;;;;4895983;29;20313;-76
2024/02/29 18:13:48;;;;;;;2.43;1.60;;;9.80;99.90;;;;;;4896377;29;20220;-77
2024/02/29 18:16:16;;;;;;;3.07;2.00;;;9.80;99.90;;;;;;4896005;29;20270;-78
2024/02/29 18:18:43;;;;;;;5.87;1.97;;;9.80;99.90;;;;;;4896329;29;20249;-78
2024/02/29 18:21:10;;;;;;;3.70;1.80;;;9.70;99.90;;;;;;4896184;29;20365;-77
2024/02/29 18:23:36;;;;;;;4.10;2.20;;;9.70;99.90;;;;;;4895828;29;20245;-79
2024/02/29 18:26:03;;;;;;;3.13;1.60;;;9.70;99.90;;;;;;4895455;29;20652;-76
2024/02/29 18:28:30;;;;;;;2.17;1.70;;;9.60;99.90;;;;;;4896002;29;20245;-76
2024/02/29 18:30:58;;;;;;;3.87;1.80;;;9.60;99.90;;;;;;4890671;29;20298;-75
2024/02/29 18:33:26;;;;;;;2.13;1.40;;;9.60;99.90;;;;;;4886400;29;20576;-78
2024/02/29 18:35:53;;;;;;;3.23;1.70;;;9.60;99.90;;;;;;4894588;29;20222;-77
2024/02/29 18:38:20;;;;;;;2.83;1.87;;;9.60;99.90;;;;;;4894439;29;20685;-76
2024/02/29 18:40:47;;;;;;;3.60;1.87;;;9.50;99.90;;;;;;4892577;29;20241;-80
2024/02/29 18:43:14;;;;;;;1.97;1.40;;;9.60;99.90;;;;;;4895091;29;20285;-77
2024/02/29 18:45:41;;;;;;;2.57;1.73;;;9.60;99.90;;;;;;4895601;29;20226;-77
2024/02/29 18:48:08;;;;;;;3.03;1.63;;;9.60;99.90;;;;;;4895835;29;20206;-77
2024/02/29 18:50:36;;;;;;;3.20;1.80;;;9.70;99.90;;;;;;4895347;29;20658;-77
2024/02/29 18:53:03;;;;;;;2.83;1.87;;;9.70;99.90;;;;;;4895287;29;20683;-77
2024/02/29 18:55:30;;;;;;;4.40;2.10;;;9.70;99.90;;;;;;4895297;29;20242;-75
2024/02/29 18:57:57;;;;;;;2.63;1.60;;;9.60;99.90;;;;;;4895327;29;20298;-77
2024/02/29 19:00:25;;;;;;;4.37;2.10;;;9.60;99.90;;;;;;4895424;29;20298;-76
2024/02/29 19:02:52;;;;;;;2.93;1.87;;;9.60;99.90;;;;;;4889265;29;20206;-76
2024/02/29 19:05:19;;;;;;;2.57;1.40;;;9.60;99.90;;;;;;4894750;29;20766;-77
2024/02/29 19:07:47;;;;;;;3.00;2.03;;;9.70;99.90;;;;;;4894806;29;20301;-79
2024/02/29 19:10:14;;;;;;;2.93;1.70;;;9.70;99.90;;;;;;4895506;29;20316;-78
2024/02/29 19:12:41;;;;;;;2.90;1.40;;;9.60;99.90;;;;;;4895889;29;20305;-78
2024/02/29 19:15:09;;;;;;;2.53;1.37;;;9.60;99.90;;;;;;4893711;29;20320;-77
2024/02/29 19:17:36;;;;;;;2.37;1.47;;;9.60;99.90;;;;;;4893149;29;20210;-77
2024/02/29 19:20:06;;;;;;;2.97;1.80;;;9.50;99.90;;;;;;4894204;29;20266;-77
2024/02/29 19:22:33;;;;;;;2.90;1.80;;;9.60;99.90;;;;;;4894017;29;20276;-76
2024/02/29 19:25:01;;;;;;;3.47;1.90;;;9.60;99.90;;;;;;4890813;29;20333;-77
2024/02/29 19:27:28;;;;;;;2.93;1.97;;;9.60;99.90;;;;;;4892908;29;20644;-77
2024/02/29 19:29:54;;;;;;;2.53;1.70;;;9.60;99.90;;;;;;4895481;29;20212;-76
2024/02/29 19:32:22;;;;;;;2.13;1.40;;;9.60;99.90;;;;;;4890791;29;20217;-75
2024/02/29 19:34:49;;;;;;;2.17;1.33;;;9.60;99.90;;;;;;4890806;29;20202;-77
2024/02/29 19:37:16;;;;;;;2.93;1.60;;;9.70;99.90;;;;;;4891848;29;20306;-81
2024/02/29 19:39:43;;;;;;;1.97;1.40;;;9.70;99.90;;;;;;4894879;29;20650;-74
2024/02/29 19:42:12;;;;;;;3.20;1.43;;;9.70;99.90;;;;;;4894770;29;20245;-81
2024/02/29 19:44:39;;;;;;;3.13;1.40;;;9.80;99.90;;;;;;4894948;29;20751;-75
2024/02/29 19:47:06;;;;;;;1.80;1.30;;;9.70;99.90;;;;;;4895759;29;20242;-77
2024/02/29 19:49:33;;;;;;;2.33;1.30;;;9.70;99.90;;;;;;4898579;29;20264;-74
2024/02/29 19:52:00;;;;;;;3.40;1.40;;;9.70;99.90;;;;;;4895437;29;20215;-72
2024/02/29 19:54:27;;;;;;;3.70;1.30;;;9.80;99.90;;;;;;4898692;29;20279;-78
2024/02/29 19:56:54;;;;;;;2.40;1.20;;;9.70;99.90;;;;;;4896908;29;20337;-79
2024/02/29 19:59:22;;;;;;;4.33;1.43;;;9.80;99.90;;;;;;4898850;29;20219;-78
2024/02/29 20:01:49;;;;;;;2.23;1.33;;;9.80;99.90;;;;;;4897879;29;20234;-78
2024/02/29 20:04:16;;;;;;;3.23;1.50;;;9.80;99.90;;;;;;4898620;29;20637;-75
2024/02/29 20:06:43;;;;;;;2.87;1.43;;;9.90;99.90;;;;;;4891099;29;20314;-77
2024/02/29 20:09:10;;;;;;;1.93;1.40;;;9.90;99.90;;;;;;4890927;29;20214;-77
2024/02/29 20:11:37;;;;;;;4.83;1.63;;;9.90;99.90;;;;;;4899505;29;20230;-73
2024/02/29 20:14:04;;;;;;;2.70;1.60;;;9.90;99.90;;;;;;4899836;29;20571;-73
2024/02/29 20:16:33;;;;;;;1.80;1.33;;;10.00;99.90;;;;;;4899481;29;20322;-72
2024/02/29 20:18:59;;;;;;;2.93;1.17;;;10.00;99.90;;;;;;4899800;29;20667;-72
2024/02/29 20:21:26;;;;;;;2.07;1.30;;;10.00;99.90;;;;;;4899619;29;20234;-75
2024/02/29 20:23:53;;;;;;;2.47;1.43;;;10.00;99.90;;;;;;4899590;29;20214;-77
2024/02/29 20:26:20;;;;;;;2.13;1.00;;;9.90;99.90;;;;;;4899036;29;20232;-73
2024/02/29 20:28:47;;;;;;;1.70;1.00;;;10.00;99.90;;;;;;4899221;29;20221;-72
2024/02/29 20:31:14;;;;;;;1.80;1.23;;;10.00;99.90;;;;;;4899388;29;20207;-73
2024/02/29 20:33:42;;;;;;;1.60;1.03;;;10.00;99.90;;;;;;4899482;29;20210;-76
2024/02/29 20:36:10;;;;;;;1.50;1.00;;;10.00;99.90;;;;;;4898728;29;20230;-72
2024/02/29 20:38:37;;;;;;;1.93;1.00;;;10.00;99.90;;;;;;4899124;29;20209;-77
2024/02/29 20:41:05;;;;;;;1.87;1.30;;;10.00;99.90;;;;;;4889724;29;20298;-73
2024/02/29 20:43:32;;;;;;;1.20;0.80;;;9.90;99.90;;;;;;4892234;29;20210;-73
2024/02/29 20:45:59;;;;;;;1.57;1.13;;;10.00;99.90;;;;;;4898839;29;20273;-73
2024/02/29 20:48:25;;;;;;;3.17;1.13;;;10.00;99.90;;;;;;4899101;29;20246;-73
2024/02/29 20:50:54;;;;;;;1.40;0.93;;;10.00;99.90;;;;;;4899139;29;20218;-72
2024/02/29 20:53:21;;;;;;;1.60;0.93;;;10.10;99.90;;;;;;4899197;29;20309;-76
2024/02/29 20:55:47;;;;;;;2.07;1.20;;;10.10;99.90;;;;;;4898689;29;20226;-73
2024/02/29 20:58:15;;;;;;;1.50;1.23;;;10.10;99.90;;;;;;4898593;29;20210;-75
2024/02/29 21:00:41;;;;;;;1.47;1.20;;;10.20;99.90;;;;;;4886299;29;20207;-72
2024/02/29 21:03:08;;;;;;;2.13;1.07;;;10.30;99.90;;;;;;4898729;29;20265;-72
2024/02/29 21:05:35;;;;;;;1.63;1.00;;;10.30;99.90;;;;;;4898719;29;20237;-72
2024/02/29 21:08:04;;;;;;;1.60;1.10;;;10.30;99.90;;;;;;4898766;29;20301;-73
2024/02/29 21:10:30;;;;;;;1.80;1.00;;;10.30;99.90;;;;;;4898782;29;20492;-73
2024/02/29 21:12:59;;;;;;;3.93;1.57;;;10.30;99.90;;;;;;4898455;29;20242;-75
2024/02/29 21:15:26;;;;;;;2.30;1.63;;;10.30;99.90;;;;;;4886832;29;20242;-72
2024/02/29 21:17:53;;;;;;;3.83;1.10;;;10.30;99.90;;;;;;4893707;29;20667;-72
2024/02/29 21:20:21;;;;;;;1.53;0.90;;;10.30;99.90;;;;;;4898700;29;20214;-76
2024/02/29 21:22:48;;;;;;;1.73;1.10;;;10.30;99.90;;;;;;4898404;29;20238;-72
2024/02/29 21:25:16;;;;;;;2.17;1.20;;;10.20;99.90;;;;;;4898631;29;20654;-73
2024/02/29 21:27:43;;;;;;;1.67;1.00;;;10.30;99.90;;;;;;4898642;29;20214;-73
2024/02/29 21:30:11;;;;;;;1.77;1.03;;;10.40;99.90;;;;;;4898467;29;20210;-76
2024/02/29 21:32:38;;;;;;;2.37;1.27;;;10.40;99.90;;;;;;4898395;29;20218;-75
2024/02/29 21:35:06;;;;;;;1.63;1.13;;;10.40;99.90;;;;;;4898174;29;20670;-73
2024/02/29 21:37:33;;;;;;;2.70;1.17;;;10.40;99.90;;;;;;4898153;29;20214;-72
2024/02/29 21:40:00;;;;;;;1.93;1.17;;;10.30;99.90;;;;;;4898195;29;20215;-73
2024/02/29 21:42:28;;;;;;;2.10;1.10;;;10.40;99.90;;;;;;4898311;29;20234;-76
2024/02/29 21:44:55;;;;;;;1.87;1.30;;;10.30;99.90;;;;;;4898373;29;20234;-73
2024/02/29 21:47:22;;;;;;;1.80;1.10;;;10.30;99.90;;;;;;4898498;29;20214;-75
2024/02/29 21:49:49;;;;;;;1.63;1.10;;;10.30;99.90;;;;;;4883662;29;20241;-77
2024/02/29 21:52:16;;;;;;;1.30;0.90;;;10.30;99.90;;;;;;4896429;29;20212;-73
2024/02/29 21:54:42;;;;;;;1.40;1.20;;;10.40;99.90;;;;;;4898516;29;20317;-77
2024/02/29 21:57:09;;;;;;;1.20;1.10;;;10.40;99.90;;;;;;4898210;29;20209;-73
2024/02/29 21:59:37;;;;;;;1.70;1.20;;;10.40;99.90;;;;;;4898208;29;20221;-73
2024/02/29 22:02:04;;;;;;;1.93;1.27;;;10.50;99.90;;;;;;4897731;29;20238;-73
2024/02/29 22:04:31;;;;;;;3.50;1.60;;;10.60;99.90;;;;;;4897860;29;20214;-76
2024/02/29 22:06:58;;;;;;;1.57;1.17;;;10.60;99.90;;;;;;4897983;29;20285;-76
2024/02/29 22:09:25;;;;;;;1.27;1.13;;;10.60;99.90;;;;;;4898034;29;20210;-73
2024/02/29 22:11:52;;;;;;;1.47;1.00;;;10.60;99.90;;;;;;4897143;29;20206;-76
2024/02/29 22:14:20;;;;;;;2.83;1.43;;;10.60;99.90;;;;;;4897979;29;20215;-72
2024/02/29 22:16:49;;;;;;;2.10;1.27;;;10.60;99.90;;;;;;4897598;29;20313;-73
2024/02/29 22:19:15;;;;;;;1.63;1.30;;;10.60;99.90;;;;;;4897671;29;20218;-72
2024/02/29 22:21:43;;;;;;;1.57;1.13;;;10.60;99.90;;;;;;4896845;29;20233;-73
2024/02/29 22:24:09;;;;;;;1.63;1.23;;;10.50;99.90;;;;;;4883489;29;20243;-73
2024/02/29 22:26:36;;;;;;;1.50;1.20;;;10.60;99.90;;;;;;4897601;29;20313;-76
